Time;durP1;ratioP1;P1;durP2;ratioP2;P2;SDS_P1;SDS_P2;PMS_P1;PMS_P2;Temp;Humidity;BMP_temperature;BMP_pressure;BME280_temperature;BME280_humidity;BME280_pressure;Samples;Min_cycle;Max_cycle;Signal;HPM_P1;HPM_P2
2022/11/28 00:02:24;;;;;;;8.05;4.88;;;;;;;6.59;100.00;100671.53;10415689;28;20099;-71
2022/11/28 00:07:26;;;;;;;7.53;4.72;;;;;;;6.65;100.00;100670.50;10416317;28;20049;-71
2022/11/28 00:12:30;;;;;;;10.05;5.25;;;;;;;6.67;100.00;100664.38;10415516;28;20057;-69
2022/11/28 00:17:32;;;;;;;4.85;4.40;;;;;;;6.73;100.00;100657.31;10414984;28;20045;-65
2022/11/28 00:22:35;;;;;;;5.00;4.00;;;;;;;6.69;100.00;100652.22;10413047;28;20107;-68
2022/11/28 00:27:38;;;;;;;5.82;4.22;;;;;;;6.75;100.00;100658.97;10415259;28;20099;-72
2022/11/28 00:32:40;;;;;;;4.95;3.28;;;;;;;6.81;100.00;100650.19;10415318;28;20077;-70
2022/11/28 00:37:42;;;;;;;4.95;3.75;;;;;;;6.88;100.00;100641.28;10414839;28;20543;-70
2022/11/28 00:42:47;;;;;;;4.80;3.65;;;;;;;7.06;100.00;100641.63;10414683;28;20079;-77
2022/11/28 00:47:49;;;;;;;4.50;3.67;;;;;;;7.09;100.00;100638.94;10414725;28;20092;-71
2022/11/28 00:52:52;;;;;;;4.72;4.30;;;;;;;7.03;100.00;100636.53;10412101;28;20064;-71
2022/11/28 00:57:55;;;;;;;4.60;3.92;;;;;;;6.99;100.00;100645.31;10414255;28;20106;-74
2022/11/28 01:02:58;;;;;;;4.55;3.58;;;;;;;6.93;100.00;100635.97;10413835;28;20045;-71
2022/11/28 01:08:00;;;;;;;7.68;4.22;;;;;;;6.89;100.00;100643.00;10414291;28;20059;-72
2022/11/28 01:13:04;;;;;;;6.65;4.15;;;;;;;6.83;100.00;100636.25;10414081;28;20049;-71
2022/11/28 01:18:06;;;;;;;5.45;3.80;;;;;;;6.85;100.00;100636.22;10413434;28;20095;-77
2022/11/28 01:23:09;;;;;;;3.83;3.15;;;;;;;6.85;100.00;100635.34;10411468;28;20049;-72
2022/11/28 01:28:12;;;;;;;4.68;3.25;;;;;;;6.86;100.00;100632.72;10413266;28;20061;-64
2022/11/28 01:33:15;;;;;;;3.17;2.83;;;;;;;6.78;100.00;100639.88;10412988;28;20077;-66
2022/11/28 01:38:17;;;;;;;5.82;3.92;;;;;;;6.69;100.00;100628.88;10421469;28;20060;-72
2022/11/28 01:43:21;;;;;;;6.22;4.85;;;;;;;6.64;100.00;100633.34;10421375;28;20060;-72
2022/11/28 01:48:26;;;;;;;4.70;3.92;;;;;;;6.61;100.00;100638.63;10421206;28;20445;-72
2022/11/28 01:53:34;;;;;;;3.55;2.85;;;;;;;6.61;100.00;100637.78;10418764;28;20049;-71
2022/11/28 01:58:44;;;;;;;5.60;3.10;;;;;;;6.64;100.00;100637.69;10421037;28;20053;-72
2022/11/28 02:03:49;;;;;;;3.90;3.28;;;;;;;6.65;100.00;100629.88;10420547;28;20057;-71
2022/11/28 02:08:52;;;;;;;4.25;3.35;;;;;;;6.66;100.00;100621.19;10420291;28;20041;-72
2022/11/28 02:14:10;;;;;;;3.33;3.03;;;;;;;6.64;100.00;100612.59;10420280;28;20126;-71
2022/11/28 02:19:54;;;;;;;6.30;3.35;;;;;;;6.64;100.00;100606.59;10420558;28;20054;-71
2022/11/28 02:25:34;;;;;;;3.25;2.95;;;;;;;6.59;100.00;100606.72;10417886;28;20116;-71
2022/11/28 02:30:50;;;;;;;3.75;2.50;;;;;;;6.54;100.00;100612.00;10419440;28;20057;-70
2022/11/28 02:36:12;;;;;;;3.70;2.70;;;;;;;6.48;100.00;100608.75;10419718;28;20049;-72
2022/11/28 02:41:28;;;;;;;5.03;3.27;;;;;;;6.41;100.00;100606.38;10419553;28;20092;-70
2022/11/28 02:46:40;;;;;;;2.92;2.65;;;;;;;6.37;100.00;100609.91;10418109;28;20308;-71
2022/11/28 02:51:49;;;;;;;5.30;2.88;;;;;;;6.33;100.00;100618.66;10416932;28;20100;-71
2022/11/28 02:56:54;;;;;;;5.68;3.10;;;;;;;6.29;100.00;100606.69;10418664;28;20053;-66
2022/11/28 03:01:56;;;;;;;3.75;2.85;;;;;;;6.26;100.00;100606.81;10418247;28;20057;-67
2022/11/28 03:07:10;;;;;;;;;;;;;;;6.22;100.00;100597.41;10418415;28;20053;-69
2022/11/28 03:12:25;;;;;;;3.65;2.83;;;;;;;6.19;100.00;100593.13;10418084;28;19991;-65
2022/11/28 03:17:46;;;;;;;5.00;2.55;;;;;;;6.17;100.00;100588.00;10417976;28;20045;-68
2022/11/28 03:23:11;;;;;;;4.93;2.65;;;;;;;6.16;100.00;100591.50;10415876;28;20057;-68
2022/11/28 03:28:25;;;;;;;4.00;2.90;;;;;;;6.15;100.00;100583.75;10417596;28;20057;-66
2022/11/28 03:33:33;;;;;;;3.00;2.70;;;;;;;6.14;100.00;100589.84;10416788;28;20127;-67
2022/11/28 03:38:41;;;;;;;5.63;2.58;;;;;;;6.13;100.00;100588.97;10417043;28;20049;-68
2022/11/28 03:43:52;;;;;;;3.50;3.20;;;;;;;6.12;100.00;100592.47;10416545;28;20103;-68
2022/11/28 03:49:00;;;;;;;3.67;3.13;;;;;;;6.11;100.00;100588.19;10416331;28;20060;-67
2022/11/28 03:54:11;;;;;;;6.45;3.17;;;;;;;6.11;100.00;100588.19;10413950;28;20068;-68
2022/11/28 03:59:22;;;;;;;3.83;3.27;;;;;;;6.10;100.00;100588.22;10415800;28;20103;-68
2022/11/28 04:04:33;;;;;;;7.10;3.50;;;;;;;6.08;100.00;100583.09;10416766;28;20075;-68
2022/11/28 04:09:45;;;;;;;3.15;2.72;;;;;;;6.10;100.00;100589.09;10415973;28;20058;-68
2022/11/28 04:14:55;;;;;;;3.78;2.97;;;;;;;6.09;100.00;100595.13;10415498;28;20100;-69
2022/11/28 04:20:06;;;;;;;4.80;2.53;;;;;;;6.10;100.00;100586.50;10415673;28;20049;-68
2022/11/28 04:25:16;;;;;;;3.38;2.72;;;;;;;6.08;100.00;100596.03;10413611;28;20434;-68
2022/11/28 04:30:17;;;;;;;3.40;3.10;;;;;;;6.09;100.00;100587.38;10415072;28;20471;-66
2022/11/28 04:35:30;;;;;;;5.57;3.03;;;;;;;6.08;100.00;100590.00;10414730;28;20401;-67
2022/11/28 04:40:45;;;;;;;2.55;2.00;;;;;;;6.09;100.00;100596.91;10414379;28;20045;-69
2022/11/28 04:45:55;;;;;;;4.07;3.10;;;;;;;6.10;100.00;100591.69;10414734;28;20055;-66
2022/11/28 04:51:09;;;;;;;3.10;2.58;;;;;;;6.09;100.00;100595.13;10414712;28;20057;-66
2022/11/28 04:56:22;;;;;;;2.70;2.50;;;;;;;6.09;100.00;100584.78;10413939;28;20045;-73
2022/11/28 05:01:30;;;;;;;4.90;2.88;;;;;;;6.09;100.00;100589.97;10414732;28;20126;-67
2022/11/28 05:06:36;;;;;;;4.18;3.45;;;;;;;6.09;100.00;100592.53;10413270;28;20060;-67
2022/11/28 05:11:39;;;;;;;3.53;3.22;;;;;;;6.10;100.00;100591.69;10413168;28;20099;-68
2022/11/28 05:16:41;;;;;;;3.42;3.10;;;;;;;6.10;100.00;100602.03;10413726;28;20095;-68
2022/11/28 05:21:43;;;;;;;3.95;3.00;;;;;;;6.10;100.00;100602.03;10411095;28;20060;-68
2022/11/28 05:26:46;;;;;;;3.00;2.75;;;;;;;6.11;100.00;100598.56;10413060;28;20085;-66
2022/11/28 05:31:48;;;;;;;4.50;3.53;;;;;;;6.11;100.00;100603.72;10413600;28;20049;-66
2022/11/28 05:36:51;;;;;;;5.32;4.07;;;;;;;6.12;100.00;100605.44;10413134;28;20050;-66
2022/11/28 05:41:56;;;;;;;3.72;3.42;;;;;;;6.12;100.00;100605.44;10413066;28;20053;-67
2022/11/28 05:46:58;;;;;;;4.10;3.10;;;;;;;6.13;100.00;100617.47;10412639;28;20060;-66
2022/11/28 05:52:00;;;;;;;4.28;3.85;;;;;;;6.13;100.00;100612.28;10410796;28;20382;-68
2022/11/28 05:57:05;;;;;;;3.60;3.25;;;;;;;6.13;100.00;100601.94;10412884;28;20095;-67
2022/11/28 06:02:06;;;;;;;4.32;3.25;;;;;;;6.12;100.00;100605.44;10411994;28;20049;-67
2022/11/28 06:07:08;;;;;;;4.25;3.47;;;;;;;6.15;100.00;100604.47;10412473;28;20049;-66
2022/11/28 06:12:11;;;;;;;4.90;3.92;;;;;;;6.15;100.00;100604.47;10412411;28;20057;-66
2022/11/28 06:17:13;;;;;;;7.57;4.82;;;;;;;6.14;100.00;100603.66;10412184;28;20418;-67
2022/11/28 06:22:15;;;;;;;5.85;4.30;;;;;;;6.14;100.00;100614.03;10414385;28;20118;-66
2022/11/28 06:27:18;;;;;;;4.38;3.90;;;;;;;6.15;100.00;100610.53;10419479;28;20049;-66
2022/11/28 06:32:19;;;;;;;6.30;4.85;;;;;;;6.16;100.00;100624.34;10420089;28;20061;-67
2022/11/28 06:37:22;;;;;;;6.90;4.28;;;;;;;6.15;100.00;100628.66;10418078;28;20095;-67
2022/11/28 06:42:25;;;;;;;5.13;4.43;;;;;;;6.17;100.00;100629.47;10417895;28;20073;-66
2022/11/28 06:47:28;;;;;;;7.95;5.45;;;;;;;6.16;100.00;100622.59;10417654;28;20397;-67
2022/11/28 06:52:30;;;;;;;5.43;4.13;;;;;;;6.18;100.00;100626.00;10415831;28;20068;-66
2022/11/28 06:57:34;;;;;;;6.50;5.53;;;;;;;6.21;100.00;100631.97;10418663;28;20547;-67
2022/11/28 07:02:36;;;;;;;6.45;5.38;;;;;;;6.20;100.00;100628.56;10418245;28;20061;-67
2022/11/28 07:07:39;;;;;;;8.63;5.97;;;;;;;6.21;100.00;100627.66;10418621;28;20054;-65
2022/11/28 07:12:42;;;;;;;7.93;6.05;;;;;;;6.22;100.00;100637.13;10418308;28;20049;-66
2022/11/28 07:17:43;;;;;;;8.70;6.97;;;;;;;6.22;100.00;100633.69;10417905;28;20054;-65
2022/11/28 07:22:48;;;;;;;9.75;7.10;;;;;;;6.24;100.00;100632.75;10415549;28;20049;-67
2022/11/28 07:27:51;;;;;;;11.43;6.82;;;;;;;6.25;100.00;100641.34;10417431;28;20049;-66
2022/11/28 07:32:54;;;;;;;11.57;7.30;;;;;;;6.27;100.00;100639.59;10416643;28;20061;-78
2022/11/28 07:37:55;;;;;;;10.00;7.82;;;;;;;6.29;100.00;100642.97;10417958;28;20103;-74
2022/11/28 07:42:59;;;;;;;12.18;7.65;;;;;;;6.28;100.00;100652.50;10417811;28;20072;-75
2022/11/28 07:48:01;;;;;;;10.57;7.07;;;;;;;6.31;100.00;100660.22;10417583;28;20057;-74
2022/11/28 07:53:02;;;;;;;13.43;7.47;;;;;;;6.31;100.00;100656.75;10414691;28;20054;-66
2022/11/28 07:58:05;;;;;;;11.45;8.52;;;;;;;6.34;100.00;100672.22;10416286;28;20084;-73
2022/11/28 08:03:08;;;;;;;9.70;8.20;;;;;;;6.34;100.00;100672.22;10416601;28;20053;-74
2022/11/28 08:08:10;;;;;;;16.10;7.85;;;;;;;6.35;100.00;100666.16;10415891;28;20099;-72
2022/11/28 08:13:14;;;;;;;10.73;7.38;;;;;;;6.37;100.00;100673.88;10415650;28;20378;-74
2022/11/28 08:18:16;;;;;;;13.88;8.52;;;;;;;6.40;100.00;100671.22;10387678;28;20054;-75
2022/11/28 08:23:18;;;;;;;10.77;7.30;;;;;;;6.46;100.00;100676.22;10399899;28;20045;-75
2022/11/28 08:28:21;;;;;;;11.80;7.60;;;;;;;6.51;100.00;100673.50;10414512;28;20053;-75
2022/11/28 08:33:24;;;;;;;11.73;7.75;;;;;;;6.56;100.00;100676.78;10415172;28;20049;-75
2022/11/28 08:38:26;;;;;;;10.55;7.35;;;;;;;6.61;100.00;100693.09;10414847;28;20045;-76
2022/11/28 08:43:30;;;;;;;12.68;7.50;;;;;;;6.64;100.00;100690.41;10415331;28;20075;-76
2022/11/28 08:48:34;;;;;;;9.68;6.40;;;;;;;6.65;100.00;100692.13;10414894;28;20059;-77
2022/11/28 08:53:37;;;;;;;12.95;7.50;;;;;;;6.70;100.00;100695.41;10412458;28;20049;-66
2022/11/28 08:58:40;;;;;;;9.90;6.60;;;;;;;6.73;100.00;100693.63;10412356;28;20173;-66
2022/11/28 09:03:41;;;;;;;11.23;7.45;;;;;;;6.77;100.00;100692.66;10412366;28;20053;-66
2022/11/28 09:08:44;;;;;;;10.80;6.80;;;;;;;6.81;100.00;100699.47;10412287;28;20050;-64
2022/11/28 09:13:49;;;;;;;10.35;6.78;;;;;;;6.85;100.00;100698.47;10411576;28;20103;-64
2022/11/28 09:18:51;;;;;;;12.30;5.97;;;;;;;6.84;100.00;100701.94;10410500;28;20082;-65
2022/11/28 09:23:56;;;;;;;10.05;6.47;;;;;;;6.85;100.00;100706.25;10409336;28;20068;-65
2022/11/28 09:28:59;;;;;;;12.48;7.00;;;;;;;6.88;100.00;100711.31;10413398;28;20070;-66
2022/11/28 09:34:03;;;;;;;10.45;6.03;;;;;;;6.91;100.00;100707.81;10413964;28;20050;-78
2022/11/28 09:39:05;;;;;;;7.82;5.45;;;;;;;6.99;100.00;100705.00;10414370;28;20077;-76
2022/11/28 09:44:21;;;;;;;8.13;5.78;;;;;;;7.03;100.00;100709.19;10411954;28;20438;-75
2022/11/28 09:49:33;;;;;;;10.55;6.78;;;;;;;7.11;100.00;100709.81;10412444;28;20045;-76
2022/11/28 09:54:48;;;;;;;13.10;6.72;;;;;;;7.16;100.00;100707.09;10411050;28;20127;-75
2022/11/28 09:59:51;;;;;;;9.93;7.30;;;;;;;7.20;100.00;100719.94;10421944;28;20060;-75
2022/11/28 10:05:09;;;;;;;13.75;8.15;;;;;;;7.28;100.00;100716.22;10422556;28;20096;-74
2022/11/28 10:10:26;;;;;;;16.23;7.97;;;;;;;7.34;100.00;100710.84;10425553;28;20067;-76
2022/11/28 10:15:53;;;;;;;12.65;8.13;;;;;;;7.34;100.00;100718.66;10422882;28;20049;-74
2022/11/28 10:21:01;;;;;;;14.23;8.85;;;;;;;7.39;100.00;100715.91;10420925;28;20053;-74
2022/11/28 10:26:12;;;;;;;15.65;9.23;;;;;;;7.45;100.00;100713.97;10418271;28;20045;-76
2022/11/28 10:31:33;;;;;;;14.30;9.55;;;;;;;7.54;100.00;100711.97;10421313;28;20551;-75
2022/11/28 10:36:52;;;;;;;20.33;8.93;;;;;;;7.56;100.00;100711.03;10419732;28;20037;-75
2022/11/28 10:42:13;;;;;;;17.13;9.35;;;;;;;7.62;100.00;100715.19;10420265;28;20056;-75
2022/11/28 10:47:43;;;;;;;16.77;9.40;;;;;;;7.69;100.00;100716.69;10420020;28;20456;-76
2022/11/28 10:52:55;;;;;;;14.27;8.93;;;;;;;7.70;100.00;100727.94;10418233;28;20183;-76
2022/11/28 10:58:09;;;;;;;17.73;9.68;;;;;;;7.78;100.00;100727.66;10419707;28;20099;-74
2022/11/28 11:03:17;;;;;;;19.58;10.35;;;;;;;7.79;100.00;100726.75;10419486;28;20057;-77
2022/11/28 11:08:22;;;;;;;21.92;11.20;;;;;;;7.73;100.00;100728.66;10418190;28;20053;-78
2022/11/28 11:13:28;;;;;;;22.17;12.05;;;;;;;7.69;100.00;100732.25;10417104;28;20058;-75
2022/11/28 11:18:36;;;;;;;24.00;13.05;;;;;;;7.73;100.00;100712.22;10419106;28;20049;-76
2022/11/28 11:23:37;;;;;;;28.35;12.43;;;;;;;7.80;100.00;100729.31;10419800;28;20470;-75
2022/11/28 11:28:43;;;;;;;22.58;12.52;;;;;;;7.80;100.00;100728.47;10424480;28;20101;-77
2022/11/28 11:33:50;;;;;;;23.48;13.27;;;;;;;7.83;100.00;100716.22;10418881;28;20107;-75
2022/11/28 11:38:52;;;;;;;26.15;14.25;;;;;;;7.85;100.00;100716.19;10418684;28;20096;-75
2022/11/28 11:43:54;;;;;;;29.65;15.35;;;;;;;7.92;100.00;100709.88;10418668;28;20107;-75
2022/11/28 11:48:57;;;;;;;29.15;14.20;;;;;;;7.93;100.00;100719.38;10417832;28;20056;-78
2022/11/28 11:54:06;;;;;;;30.60;15.90;;;;;;;7.96;100.00;100714.06;10416685;28;20096;-74
2022/11/28 11:59:16;;;;;;;37.83;15.57;;;;;;;7.96;100.00;100721.88;10415712;28;20111;-78
2022/11/28 12:04:30;;;;;;;37.08;16.83;;;;;;;8.05;100.00;100722.47;10415336;28;20409;-76
2022/11/28 12:09:41;;;;;;;28.42;15.40;;;;;;;8.09;100.00;100735.31;10415067;28;20074;-78
2022/11/28 12:14:43;;;;;;;45.20;17.67;;;;;;;8.11;100.00;100727.47;10415022;28;20467;-75
2022/11/28 12:20:05;;;;;;;40.80;18.45;;;;;;;8.14;100.00;100722.13;10414064;28;20049;-74
2022/11/28 12:25:22;;;;;;;48.53;19.00;;;;;;;8.15;100.00;100734.25;10412487;28;20054;-77
2022/11/28 12:30:43;;;;;;;40.42;17.20;;;;;;;8.20;100.00;100737.53;10414348;28;20082;-75
2022/11/28 12:36:01;;;;;;;39.38;18.65;;;;;;;8.18;100.00;100728.94;10413664;28;20053;-64
2022/11/28 12:41:29;;;;;;;44.35;18.05;;;;;;;8.22;100.00;100730.53;10413245;28;20108;-64
2022/11/28 12:46:47;;;;;;;43.33;18.98;;;;;;;8.29;100.00;100727.72;10413114;28;20091;-64
2022/11/28 12:52:06;;;;;;;39.67;17.15;;;;;;;8.34;100.00;100728.41;10410873;28;20094;-64
2022/11/28 12:57:22;;;;;;;41.13;18.92;;;;;;;8.28;100.00;100728.63;10413029;28;20485;-64
2022/11/28 13:02:37;;;;;;;34.15;17.23;;;;;;;8.30;100.00;100726.81;10412278;28;20061;-64
2022/11/28 13:08:02;;;;;;;50.35;20.98;;;;;;;8.33;100.00;100726.72;10412436;28;20049;-64
2022/11/28 13:13:12;;;;;;;46.42;19.85;;;;;;;8.39;100.00;100721.31;10412302;28;20099;-65
2022/11/28 13:18:32;;;;;;;42.15;19.90;;;;;;;8.49;100.00;100727.84;10412591;28;20537;-64
2022/11/28 13:23:48;;;;;;;50.10;19.20;;;;;;;8.50;100.00;100729.56;10409836;28;20041;-64
2022/11/28 13:29:00;;;;;;;45.47;20.45;;;;;;;8.57;100.00;100734.56;10411897;28;20053;-64
2022/11/28 13:34:04;;;;;;;;;;;;;;;8.53;100.00;100733.84;10412110;28;20414;-65
2022/11/28 13:39:18;;;;;;;37.33;17.80;;;;;;;8.49;100.00;100743.47;10411911;28;19921;-64
2022/11/28 13:44:30;;;;;;;42.88;18.45;;;;;;;8.52;100.00;100752.06;10411471;28;20054;-63
2022/11/28 13:49:32;;;;;;;34.45;18.42;;;;;;;8.45;100.00;100748.84;10411535;28;20064;-63
2022/11/28 13:54:43;;;;;;;43.00;17.33;;;;;;;8.40;100.00;100754.19;10409148;28;20054;-64
2022/11/28 13:59:58;;;;;;;36.80;18.73;;;;;;;8.42;100.00;100756.75;10411425;28;20094;-64
2022/11/28 14:05:02;;;;;;;42.13;18.77;;;;;;;8.43;100.00;100753.25;10410899;28;20295;-63
2022/11/28 14:10:39;;;;;;;47.85;19.42;;;;;;;8.47;100.00;100760.03;10411430;28;20107;-63
2022/11/28 14:15:58;;;;;;;40.40;17.95;;;;;;;8.44;100.00;100761.00;10411932;28;20061;-64
2022/11/28 14:21:11;;;;;;;33.53;17.65;;;;;;;8.45;100.00;100762.69;10404508;28;20049;-63
2022/11/28 14:26:26;;;;;;;35.70;18.10;;;;;;;8.42;100.00;100767.97;10408025;28;20049;-63
2022/11/28 14:31:34;;;;;;;33.78;17.58;;;;;;;8.41;100.00;100775.88;10410630;28;20559;-63
2022/11/28 14:36:40;;;;;;;41.40;18.52;;;;;;;8.40;100.00;100784.53;10410818;28;20493;-63
2022/11/28 14:42:35;;;;;;;44.38;18.13;;;;;;;8.41;100.00;100786.28;10412538;28;20057;-63
2022/11/28 14:47:41;;;;;;;38.83;17.63;;;;;;;8.42;100.00;100783.59;10418270;28;20568;-63
2022/11/28 14:52:45;;;;;;;36.03;16.98;;;;;;;8.35;100.00;100787.31;10415230;28;20057;-63
2022/11/28 14:57:58;;;;;;;37.90;16.95;;;;;;;8.37;100.00;100790.72;10417385;28;20057;-63
2022/11/28 15:03:22;;;;;;;41.42;19.23;;;;;;;8.35;100.00;100785.56;10417616;28;20050;-64
2022/11/28 15:08:59;;;;;;;33.22;16.35;;;;;;;8.32;100.00;100787.44;10417154;28;20065;-64
2022/11/28 15:14:14;;;;;;;34.60;16.55;;;;;;;8.35;100.00;100792.53;10414355;28;20053;-64
2022/11/28 15:19:25;;;;;;;35.13;16.88;;;;;;;8.32;100.00;100787.44;10416700;28;20049;-64
2022/11/28 15:24:32;;;;;;;35.53;17.23;;;;;;;8.25;100.00;100795.41;10412366;28;20142;-64
2022/11/28 15:29:35;;;;;;;43.58;16.73;;;;;;;8.24;100.00;100805.88;10416343;28;20056;-65
2022/11/28 15:34:39;;;;;;;48.50;17.90;;;;;;;8.16;100.00;100805.28;10416169;28;20046;-64
2022/11/28 15:39:44;;;;;;;34.17;17.42;;;;;;;8.12;100.00;100817.53;10415708;28;20054;-64
2022/11/28 15:44:46;;;;;;;39.70;19.40;;;;;;;8.14;100.00;100820.91;10415586;28;20049;-65
2022/11/28 15:50:02;;;;;;;35.47;15.85;;;;;;;8.14;100.00;100823.50;10415666;28;20046;-73
2022/11/28 15:55:15;;;;;;;37.40;17.05;;;;;;;8.15;100.00;100822.63;10412585;28;20063;-72
2022/11/28 16:00:20;;;;;;;38.47;15.52;;;;;;;8.11;100.00;100821.88;10414091;28;20049;-71
2022/11/28 16:05:24;;;;;;;35.85;16.85;;;;;;;8.10;100.00;100820.19;10415311;28;20049;-64
2022/11/28 16:10:37;;;;;;;34.78;15.35;;;;;;;8.07;100.00;100822.00;10414369;28;20578;-63
2022/11/28 16:15:46;;;;;;;45.08;17.92;;;;;;;8.11;100.00;100836.63;10414737;28;20049;-64
2022/11/28 16:20:49;;;;;;;41.05;16.10;;;;;;;8.08;100.00;100840.16;10411931;28;20416;-64
2022/11/28 16:26:00;;;;;;;32.85;16.33;;;;;;;8.11;100.00;100849.63;10409117;28;20049;-63
2022/11/28 16:31:11;;;;;;;47.38;18.15;;;;;;;8.10;100.00;100860.91;10413176;28;20053;-65
2022/11/28 16:36:24;;;;;;;39.50;18.27;;;;;;;8.13;100.00;100868.63;10413875;28;20049;-64
2022/11/28 16:41:29;;;;;;;23.27;11.38;;;;;;;8.10;100.00;100873.91;10412991;28;20053;-63
2022/11/28 16:46:36;;;;;;;38.95;16.55;;;;;;;8.09;100.00;100880.00;10411867;28;20107;-63
2022/11/28 16:51:41;;;;;;;45.35;15.55;;;;;;;8.05;100.00;100876.66;10411694;28;20114;-63
2022/11/28 16:56:44;;;;;;;28.77;15.75;;;;;;;8.08;100.00;100893.91;10409829;28;20046;-63
2022/11/28 17:01:51;;;;;;;37.72;15.35;;;;;;;8.04;100.00;100887.13;10411213;28;20327;-64
2022/11/28 17:06:57;;;;;;;39.92;16.88;;;;;;;8.03;100.00;100900.97;10410546;28;20103;-63
2022/11/28 17:12:05;;;;;;;31.67;15.63;;;;;;;8.02;100.00;100917.47;10410883;28;20057;-63
2022/11/28 17:17:13;;;;;;;32.42;14.95;;;;;;;8.01;100.00;100918.38;10410554;28;20126;-63
2022/11/28 17:22:20;;;;;;;37.67;15.95;;;;;;;7.97;100.00;100918.47;10408117;28;20057;-63
2022/11/28 17:27:21;;;;;;;27.50;14.43;;;;;;;7.93;100.00;100919.47;10410666;28;20103;-64
2022/11/28 17:32:24;;;;;;;30.20;15.98;;;;;;;7.91;100.00;100913.47;10410326;28;20046;-64
2022/11/28 17:37:27;;;;;;;36.47;16.13;;;;;;;7.87;100.00;100917.03;10409984;28;20053;-64
2022/11/28 17:42:28;;;;;;;38.63;15.00;;;;;;;7.84;100.00;100911.97;10410329;28;20053;-63
2022/11/28 17:47:30;;;;;;;42.00;14.88;;;;;;;7.82;100.00;100925.00;10410510;28;20049;-64
2022/11/28 17:52:33;;;;;;;35.85;14.27;;;;;;;7.81;100.00;100922.44;10407865;28;20045;-64
2022/11/28 17:57:35;;;;;;;30.45;13.27;;;;;;;7.75;100.00;100930.41;10409813;28;20609;-64
2022/11/28 18:02:37;;;;;;;35.20;14.98;;;;;;;7.73;100.00;100936.50;10409533;28;20059;-64
2022/11/28 18:07:40;;;;;;;31.95;14.38;;;;;;;7.67;100.00;100934.06;10409926;28;20234;-64
2022/11/28 18:12:42;;;;;;;28.45;13.75;;;;;;;7.59;100.00;100928.25;10409889;28;20112;-64
2022/11/28 18:17:43;;;;;;;29.88;14.57;;;;;;;7.46;100.00;100933.78;10413347;28;20045;-64
2022/11/28 18:22:47;;;;;;;35.75;14.52;;;;;;;7.33;100.00;100940.22;10414889;28;20408;-63
2022/11/28 18:27:50;;;;;;;40.97;16.45;;;;;;;7.26;100.00;100939.53;10417145;28;20076;-64
2022/11/28 18:32:52;;;;;;;33.13;14.60;;;;;;;7.15;100.00;100950.19;10416893;28;20467;-64
2022/11/28 18:37:55;;;;;;;31.98;15.27;;;;;;;7.04;100.00;100941.84;10416970;28;20607;-64
2022/11/28 18:42:57;;;;;;;38.55;16.13;;;;;;;6.95;100.00;100943.78;10416596;28;20054;-64
2022/11/28 18:47:58;;;;;;;;;;;;;;;6.80;100.00;100949.34;10417055;28;20073;-63
2022/11/28 18:53:02;;;;;;;29.55;13.98;;;;;;;6.73;100.00;100948.66;10414091;28;19921;-64
2022/11/28 18:58:03;;;;;;;33.67;14.88;;;;;;;6.68;100.00;100946.16;10415889;28;20497;-64
2022/11/28 19:03:05;;;;;;;30.50;13.57;;;;;;;6.70;100.00;100959.09;10415950;28;20059;-64
2022/11/28 19:08:08;;;;;;;34.50;16.10;;;;;;;6.59;100.00;100956.78;10415623;28;20053;-64
2022/11/28 19:13:10;;;;;;;38.08;14.57;;;;;;;6.52;100.00;100965.59;10415892;28;20053;-63
2022/11/28 19:18:12;;;;;;;29.15;14.35;;;;;;;6.41;100.00;100966.69;10415393;28;20054;-64
2022/11/28 19:23:15;;;;;;;43.15;17.27;;;;;;;6.31;100.00;100973.84;10412920;28;20077;-63
2022/11/28 19:28:18;;;;;;;31.98;15.18;;;;;;;6.27;100.00;100966.16;10413724;28;20065;-64
2022/11/28 19:33:19;;;;;;;29.50;14.13;;;;;;;6.31;100.00;100971.25;10414543;28;20101;-64
2022/11/28 19:38:22;;;;;;;34.17;14.80;;;;;;;6.22;100.00;100983.56;10414597;28;20616;-71
2022/11/28 19:43:24;;;;;;;31.90;14.32;;;;;;;6.13;100.00;100990.63;10414475;28;20068;-72
2022/11/28 19:48:29;;;;;;;36.30;15.85;;;;;;;6.03;100.00;100991.69;10414583;28;20110;-72
2022/11/28 19:53:36;;;;;;;22.70;10.90;;;;;;;5.91;100.00;101001.41;10411074;28;20466;-72
2022/11/28 19:58:38;;;;;;;17.85;10.75;;;;;;;5.80;100.00;100990.41;10413932;28;20079;-71
2022/11/28 20:03:40;;;;;;;;;;;;;;;5.72;100.00;101000.06;10413175;28;20053;-71
2022/11/28 20:08:46;;;;;;;24.85;11.23;;;;;;;5.71;100.00;101006.97;10412129;28;19921;-71
2022/11/28 20:13:48;;;;;;;32.78;14.68;;;;;;;5.70;100.00;101007.00;10412037;28;20156;-71
2022/11/28 20:18:50;;;;;;;29.45;14.93;;;;;;;5.69;100.00;101001.00;10411415;28;20072;-70
2022/11/28 20:23:56;;;;;;;41.13;16.65;;;;;;;5.68;100.00;101007.03;10409642;28;20049;-71
2022/11/28 20:28:58;;;;;;;34.35;15.75;;;;;;;5.75;100.00;101015.56;10411436;28;20071;-65
2022/11/28 20:34:01;;;;;;;31.88;14.75;;;;;;;5.61;100.00;101011.47;10411333;28;20053;-66
2022/11/28 20:39:05;;;;;;;35.83;17.77;;;;;;;5.60;100.00;101012.38;10410619;28;20045;-65
2022/11/28 20:44:08;;;;;;;39.33;15.90;;;;;;;5.53;100.00;101011.63;10411155;28;20053;-64
2022/11/28 20:49:10;;;;;;;32.50;15.70;;;;;;;5.52;100.00;101020.28;10410768;28;20056;-65
2022/11/28 20:54:14;;;;;;;21.42;11.90;;;;;;;5.43;100.00;101028.22;10407934;28;20045;-64
2022/11/28 20:59:17;;;;;;;31.38;14.10;;;;;;;5.31;100.00;101025.84;10410062;28;20574;-65
2022/11/28 21:04:19;;;;;;;49.13;18.92;;;;;;;5.31;100.00;101026.72;10410009;28;20127;-65
2022/11/28 21:09:23;;;;;;;37.33;15.88;;;;;;;5.38;100.00;101028.28;10410252;28;20108;-65
2022/11/28 21:14:24;;;;;;;72.20;30.48;;;;;;;5.36;100.00;101029.19;10410621;28;20071;-65
2022/11/28 21:19:27;;;;;;;73.28;31.50;;;;;;;5.31;100.00;101036.19;10410433;28;20049;-65
2022/11/28 21:24:30;;;;;;;57.67;26.85;;;;;;;5.26;100.00;101038.84;10408392;28;20059;-66
2022/11/28 21:29:33;;;;;;;61.45;30.83;;;;;;;5.27;100.00;101046.59;10410752;28;20049;-65
2022/11/28 21:34:34;;;;;;;61.75;25.48;;;;;;;5.37;100.00;101038.69;10410566;28;20491;-65
2022/11/28 21:39:37;;;;;;;36.55;15.18;;;;;;;5.36;100.00;101050.75;10410551;28;20531;-65
2022/11/28 21:44:39;;;;;;;36.42;17.13;;;;;;;5.26;100.00;101047.47;10410865;28;20511;-65
2022/11/28 21:49:41;;;;;;;41.97;16.17;;;;;;;5.14;100.00;101058.88;10411668;28;20428;-65
2022/11/28 21:54:44;;;;;;;52.75;17.63;;;;;;;5.03;100.00;101058.19;10416224;28;20057;-65
2022/11/28 21:59:45;;;;;;;35.35;17.75;;;;;;;5.00;100.00;101060.84;10419254;28;20085;-65
2022/11/28 22:04:47;;;;;;;37.17;17.63;;;;;;;4.97;100.00;101059.16;10419501;28;20056;-65
2022/11/28 22:09:50;;;;;;;40.90;16.88;;;;;;;4.87;100.00;101057.59;10419289;28;20464;-65
2022/11/28 22:14:52;;;;;;;37.63;16.58;;;;;;;4.83;100.00;101061.94;10419053;28;20053;-65
2022/11/28 22:19:53;;;;;;;31.30;16.52;;;;;;;4.78;100.00;101063.75;10418770;28;20493;-65
2022/11/28 22:24:58;;;;;;;39.72;16.92;;;;;;;4.70;100.00;101068.16;10416426;28;20087;-65
2022/11/28 22:29:59;;;;;;;32.90;16.52;;;;;;;4.79;100.00;101060.28;10418231;28;20113;-64
2022/11/28 22:35:01;;;;;;;36.53;16.63;;;;;;;4.78;100.00;101068.06;10418742;28;20057;-65
2022/11/28 22:40:06;;;;;;;40.85;17.92;;;;;;;4.79;100.00;101064.59;10418057;28;20082;-65
2022/11/28 22:45:09;;;;;;;41.63;17.55;;;;;;;4.86;100.00;101069.66;10418056;28;20191;-65
2022/11/28 22:50:11;;;;;;;35.38;18.10;;;;;;;4.82;100.00;101072.31;10417645;28;20482;-65
2022/11/28 22:55:16;;;;;;;43.00;18.48;;;;;;;4.82;100.00;101078.34;10415168;28;20503;-66
2022/11/28 23:00:18;;;;;;;35.80;18.48;;;;;;;4.81;100.00;101084.38;10417085;28;20153;-64
2022/11/28 23:05:20;;;;;;;34.75;18.20;;;;;;;4.83;100.00;101087.78;10416916;28;20068;-64
2022/11/28 23:10:23;;;;;;;49.13;23.80;;;;;;;4.82;100.00;101090.44;10416837;28;20053;-64
2022/11/28 23:15:25;;;;;;;51.92;22.83;;;;;;;4.79;100.00;101090.47;10416947;28;20049;-65